sensor_id;sensor_type;location;lat;lon;timestamp;pressure;altitude;pressure_sealevel;temperature
15079;BMP180;6932;51.438;5.470;2022-08-21T00:00:24;101366.00;;;23.20
15079;BMP180;6932;51.438;5.470;2022-08-21T00:03:00;101364.00;;;23.20
15079;BMP180;6932;51.438;5.470;2022-08-21T00:05:28;101369.00;;;23.10
15079;BMP180;6932;51.438;5.470;2022-08-21T00:07:55;101372.00;;;23.20
15079;BMP180;6932;51.438;5.470;2022-08-21T00:10:21;101370.00;;;23.10
15079;BMP180;6932;51.438;5.470;2022-08-21T00:12:49;101370.00;;;23.10
15079;BMP180;6932;51.438;5.470;2022-08-21T00:15:21;101372.00;;;23.10
15079;BMP180;6932;51.438;5.470;2022-08-21T00:17:47;101368.00;;;23.10
15079;BMP180;6932;51.438;5.470;2022-08-21T00:20:16;101372.00;;;23.10
15079;BMP180;6932;51.438;5.470;2022-08-21T00:22:42;101365.00;;;23.00
15079;BMP180;6932;51.438;5.470;2022-08-21T00:25:09;101361.00;;;23.00
15079;BMP180;6932;51.438;5.470;2022-08-21T00:27:36;101361.00;;;23.00
15079;BMP180;6932;51.438;5.470;2022-08-21T00:30:05;101358.00;;;23.00
15079;BMP180;6932;51.438;5.470;2022-08-21T00:32:31;101355.00;;;22.90
15079;BMP180;6932;51.438;5.470;2022-08-21T00:34:57;101357.00;;;22.90
15079;BMP180;6932;51.438;5.470;2022-08-21T00:37:24;101358.00;;;22.90
15079;BMP180;6932;51.438;5.470;2022-08-21T00:39:50;101351.00;;;22.90
15079;BMP180;6932;51.438;5.470;2022-08-21T00:42:17;101344.00;;;22.80
15079;BMP180;6932;51.438;5.470;2022-08-21T00:44:45;101345.00;;;22.80
15079;BMP180;6932;51.438;5.470;2022-08-21T00:47:11;101347.00;;;22.80
15079;BMP180;6932;51.438;5.470;2022-08-21T00:49:38;101347.00;;;22.80
15079;BMP180;6932;51.438;5.470;2022-08-21T00:52:10;101342.00;;;22.80
15079;BMP180;6932;51.438;5.470;2022-08-21T00:54:39;101335.00;;;22.80
15079;BMP180;6932;51.438;5.470;2022-08-21T00:57:24;101345.00;;;22.80
15079;BMP180;6932;51.438;5.470;2022-08-21T00:59:54;101347.00;;;22.80
15079;BMP180;6932;51.438;5.470;2022-08-21T01:02:21;101342.00;;;22.80
15079;BMP180;6932;51.438;5.470;2022-08-21T01:04:48;101349.00;;;22.80
15079;BMP180;6932;51.438;5.470;2022-08-21T01:07:15;101346.00;;;22.80
15079;BMP180;6932;51.438;5.470;2022-08-21T01:09:43;101343.00;;;22.80
15079;BMP180;6932;51.438;5.470;2022-08-21T01:12:10;101348.00;;;22.80
15079;BMP180;6932;51.438;5.470;2022-08-21T01:14:37;101336.00;;;22.80
15079;BMP180;6932;51.438;5.470;2022-08-21T01:17:04;101344.00;;;22.80
15079;BMP180;6932;51.438;5.470;2022-08-21T01:19:31;101345.00;;;22.80
15079;BMP180;6932;51.438;5.470;2022-08-21T01:21:57;101344.00;;;22.80
15079;BMP180;6932;51.438;5.470;2022-08-21T01:24:25;101333.00;;;22.80
15079;BMP180;6932;51.438;5.470;2022-08-21T01:26:51;101334.00;;;22.80
15079;BMP180;6932;51.438;5.470;2022-08-21T01:32:08;101337.00;;;22.80
15079;BMP180;6932;51.438;5.470;2022-08-21T01:34:39;101335.00;;;22.70
15079;BMP180;6932;51.438;5.470;2022-08-21T01:37:07;101333.00;;;22.70
15079;BMP180;6932;51.438;5.470;2022-08-21T01:39:34;101333.00;;;22.70
15079;BMP180;6932;51.438;5.470;2022-08-21T01:42:00;101325.00;;;22.70
15079;BMP180;6932;51.438;5.470;2022-08-21T01:44:28;101332.00;;;22.70
15079;BMP180;6932;51.438;5.470;2022-08-21T01:46:55;101336.00;;;22.60
15079;BMP180;6932;51.438;5.470;2022-08-21T01:49:22;101333.00;;;22.60
15079;BMP180;6932;51.438;5.470;2022-08-21T01:51:48;101338.00;;;22.60
15079;BMP180;6932;51.438;5.470;2022-08-21T01:54:14;101338.00;;;22.60
15079;BMP180;6932;51.438;5.470;2022-08-21T01:56:48;101332.00;;;22.60
15079;BMP180;6932;51.438;5.470;2022-08-21T01:59:15;101326.00;;;22.50
15079;BMP180;6932;51.438;5.470;2022-08-21T02:01:41;101323.00;;;22.50
15079;BMP180;6932;51.438;5.470;2022-08-21T02:04:10;101310.00;;;22.50
15079;BMP180;6932;51.438;5.470;2022-08-21T02:06:36;101324.00;;;22.50
15079;BMP180;6932;51.438;5.470;2022-08-21T02:09:09;101320.00;;;22.50
15079;BMP180;6932;51.438;5.470;2022-08-21T02:11:36;101307.00;;;22.50
15079;BMP180;6932;51.438;5.470;2022-08-21T02:14:13;101317.00;;;22.40
15079;BMP180;6932;51.438;5.470;2022-08-21T02:16:42;101303.00;;;22.40
15079;BMP180;6932;51.438;5.470;2022-08-21T02:19:09;101305.00;;;22.40
15079;BMP180;6932;51.438;5.470;2022-08-21T02:21:35;101319.00;;;22.30
15079;BMP180;6932;51.438;5.470;2022-08-21T02:24:01;101302.00;;;22.30
15079;BMP180;6932;51.438;5.470;2022-08-21T02:26:26;101308.00;;;22.30
15079;BMP180;6932;51.438;5.470;2022-08-21T02:28:53;101307.00;;;22.30
15079;BMP180;6932;51.438;5.470;2022-08-21T02:31:19;101309.00;;;22.20
15079;BMP180;6932;51.438;5.470;2022-08-21T02:33:45;101298.00;;;22.20
15079;BMP180;6932;51.438;5.470;2022-08-21T02:36:12;101299.00;;;22.20
15079;BMP180;6932;51.438;5.470;2022-08-21T02:38:41;101307.00;;;22.20
15079;BMP180;6932;51.438;5.470;2022-08-21T02:41:13;101305.00;;;22.10
15079;BMP180;6932;51.438;5.470;2022-08-21T02:43:40;101309.00;;;22.10
15079;BMP180;6932;51.438;5.470;2022-08-21T02:46:08;101306.00;;;22.10
15079;BMP180;6932;51.438;5.470;2022-08-21T02:48:36;101305.00;;;22.10
15079;BMP180;6932;51.438;5.470;2022-08-21T02:51:10;101314.00;;;22.00
15079;BMP180;6932;51.438;5.470;2022-08-21T02:53:37;101307.00;;;22.00
15079;BMP180;6932;51.438;5.470;2022-08-21T02:56:08;101315.00;;;22.00
15079;BMP180;6932;51.438;5.470;2022-08-21T02:58:40;101313.00;;;22.00
15079;BMP180;6932;51.438;5.470;2022-08-21T03:01:07;101306.00;;;22.00
15079;BMP180;6932;51.438;5.470;2022-08-21T03:03:37;101308.00;;;21.90
15079;BMP180;6932;51.438;5.470;2022-08-21T03:06:05;101308.00;;;21.90
15079;BMP180;6932;51.438;5.470;2022-08-21T03:08:32;101301.00;;;21.90
15079;BMP180;6932;51.438;5.470;2022-08-21T03:10:57;101303.00;;;21.90
15079;BMP180;6932;51.438;5.470;2022-08-21T03:13:25;101296.00;;;21.90
15079;BMP180;6932;51.438;5.470;2022-08-21T03:15:51;101297.00;;;21.90
15079;BMP180;6932;51.438;5.470;2022-08-21T03:18:17;101301.00;;;21.90
15079;BMP180;6932;51.438;5.470;2022-08-21T03:20:45;101296.00;;;21.90
15079;BMP180;6932;51.438;5.470;2022-08-21T03:23:11;101301.00;;;21.90
15079;BMP180;6932;51.438;5.470;2022-08-21T03:25:39;101297.00;;;21.90
15079;BMP180;6932;51.438;5.470;2022-08-21T03:28:10;101298.00;;;21.90
15079;BMP180;6932;51.438;5.470;2022-08-21T03:30:36;101303.00;;;21.90
15079;BMP180;6932;51.438;5.470;2022-08-21T03:33:03;101301.00;;;21.90
15079;BMP180;6932;51.438;5.470;2022-08-21T03:35:29;101298.00;;;21.90
15079;BMP180;6932;51.438;5.470;2022-08-21T03:37:55;101298.00;;;21.90
15079;BMP180;6932;51.438;5.470;2022-08-21T03:40:23;101291.00;;;21.80
15079;BMP180;6932;51.438;5.470;2022-08-21T03:42:50;101289.00;;;21.80
15079;BMP180;6932;51.438;5.470;2022-08-21T03:45:18;101296.00;;;21.80
15079;BMP180;6932;51.438;5.470;2022-08-21T03:48:00;101294.00;;;21.80
15079;BMP180;6932;51.438;5.470;2022-08-21T03:50:30;101299.00;;;21.80
15079;BMP180;6932;51.438;5.470;2022-08-21T03:52:56;101298.00;;;21.80
15079;BMP180;6932;51.438;5.470;2022-08-21T03:55:24;101289.00;;;21.70
15079;BMP180;6932;51.438;5.470;2022-08-21T03:57:50;101299.00;;;21.70
15079;BMP180;6932;51.438;5.470;2022-08-21T04:00:17;101288.00;;;21.70
15079;BMP180;6932;51.438;5.470;2022-08-21T04:02:45;101295.00;;;21.60
15079;BMP180;6932;51.438;5.470;2022-08-21T04:05:13;101289.00;;;21.60
15079;BMP180;6932;51.438;5.470;2022-08-21T04:07:39;101285.00;;;21.50
15079;BMP180;6932;51.438;5.470;2022-08-21T04:10:07;101284.00;;;21.50
15079;BMP180;6932;51.438;5.470;2022-08-21T04:12:33;101295.00;;;21.40
15079;BMP180;6932;51.438;5.470;2022-08-21T04:14:59;101294.00;;;21.30
15079;BMP180;6932;51.438;5.470;2022-08-21T04:17:25;101293.00;;;21.30
15079;BMP180;6932;51.438;5.470;2022-08-21T04:19:50;101307.00;;;21.30
15079;BMP180;6932;51.438;5.470;2022-08-21T04:22:16;101299.00;;;21.30
15079;BMP180;6932;51.438;5.470;2022-08-21T04:24:42;101304.00;;;21.20
15079;BMP180;6932;51.438;5.470;2022-08-21T04:27:08;101300.00;;;21.20
15079;BMP180;6932;51.438;5.470;2022-08-21T04:29:34;101296.00;;;21.20
15079;BMP180;6932;51.438;5.470;2022-08-21T04:31:59;101303.00;;;21.10
15079;BMP180;6932;51.438;5.470;2022-08-21T04:34:25;101303.00;;;21.10
15079;BMP180;6932;51.438;5.470;2022-08-21T04:36:51;101304.00;;;21.10
15079;BMP180;6932;51.438;5.470;2022-08-21T04:39:17;101302.00;;;21.10
15079;BMP180;6932;51.438;5.470;2022-08-21T04:41:42;101306.00;;;21.10
15079;BMP180;6932;51.438;5.470;2022-08-21T04:44:08;101307.00;;;21.10
15079;BMP180;6932;51.438;5.470;2022-08-21T04:46:34;101303.00;;;21.10
15079;BMP180;6932;51.438;5.470;2022-08-21T04:49:00;101305.00;;;21.10
15079;BMP180;6932;51.438;5.470;2022-08-21T04:51:33;101308.00;;;21.10
15079;BMP180;6932;51.438;5.470;2022-08-21T04:54:13;101308.00;;;21.10
15079;BMP180;6932;51.438;5.470;2022-08-21T04:57:05;101314.00;;;21.10
15079;BMP180;6932;51.438;5.470;2022-08-21T04:59:38;101303.00;;;21.10
15079;BMP180;6932;51.438;5.470;2022-08-21T05:02:06;101304.00;;;21.10
15079;BMP180;6932;51.438;5.470;2022-08-21T05:04:36;101316.00;;;21.10
15079;BMP180;6932;51.438;5.470;2022-08-21T05:07:09;101317.00;;;21.10
15079;BMP180;6932;51.438;5.470;2022-08-21T05:09:37;101317.00;;;21.00
15079;BMP180;6932;51.438;5.470;2022-08-21T05:12:05;101311.00;;;21.00
15079;BMP180;6932;51.438;5.470;2022-08-21T05:14:31;101320.00;;;21.00
15079;BMP180;6932;51.438;5.470;2022-08-21T05:16:56;101309.00;;;21.00
15079;BMP180;6932;51.438;5.470;2022-08-21T05:19:22;101327.00;;;21.00
15079;BMP180;6932;51.438;5.470;2022-08-21T05:21:48;101328.00;;;21.00
15079;BMP180;6932;51.438;5.470;2022-08-21T05:24:15;101321.00;;;21.00
15079;BMP180;6932;51.438;5.470;2022-08-21T05:26:42;101324.00;;;21.10
15079;BMP180;6932;51.438;5.470;2022-08-21T05:29:08;101323.00;;;21.20
15079;BMP180;6932;51.438;5.470;2022-08-21T05:31:34;101329.00;;;21.30
15079;BMP180;6932;51.438;5.470;2022-08-21T05:33:59;101329.00;;;21.40
15079;BMP180;6932;51.438;5.470;2022-08-21T05:36:25;101323.00;;;21.60
15079;BMP180;6932;51.438;5.470;2022-08-21T05:38:51;101330.00;;;21.70
15079;BMP180;6932;51.438;5.470;2022-08-21T05:41:17;101330.00;;;21.90
15079;BMP180;6932;51.438;5.470;2022-08-21T05:43:42;101333.00;;;22.10
15079;BMP180;6932;51.438;5.470;2022-08-21T05:46:08;101326.00;;;22.20
15079;BMP180;6932;51.438;5.470;2022-08-21T05:48:35;101337.00;;;22.40
15079;BMP180;6932;51.438;5.470;2022-08-21T05:51:11;101341.00;;;22.50
15079;BMP180;6932;51.438;5.470;2022-08-21T05:53:38;101335.00;;;22.70
15079;BMP180;6932;51.438;5.470;2022-08-21T05:56:05;101333.00;;;22.80
15079;BMP180;6932;51.438;5.470;2022-08-21T05:58:33;101336.00;;;23.00
15079;BMP180;6932;51.438;5.470;2022-08-21T06:01:01;101338.00;;;23.10
15079;BMP180;6932;51.438;5.470;2022-08-21T06:03:31;101339.00;;;23.30
15079;BMP180;6932;51.438;5.470;2022-08-21T06:05:59;101334.00;;;23.50
15079;BMP180;6932;51.438;5.470;2022-08-21T06:08:26;101336.00;;;23.70
15079;BMP180;6932;51.438;5.470;2022-08-21T06:10:54;101321.00;;;23.90
15079;BMP180;6932;51.438;5.470;2022-08-21T06:13:21;101334.00;;;24.00
15079;BMP180;6932;51.438;5.470;2022-08-21T06:15:48;101332.00;;;24.20
15079;BMP180;6932;51.438;5.470;2022-08-21T06:18:16;101332.00;;;24.30
15079;BMP180;6932;51.438;5.470;2022-08-21T06:20:42;101328.00;;;24.40
15079;BMP180;6932;51.438;5.470;2022-08-21T06:23:09;101336.00;;;24.50
15079;BMP180;6932;51.438;5.470;2022-08-21T06:25:35;101336.00;;;24.60
15079;BMP180;6932;51.438;5.470;2022-08-21T06:28:09;101335.00;;;24.60
15079;BMP180;6932;51.438;5.470;2022-08-21T06:30:37;101333.00;;;24.70
15079;BMP180;6932;51.438;5.470;2022-08-21T06:33:04;101333.00;;;24.70
15079;BMP180;6932;51.438;5.470;2022-08-21T06:35:31;101339.00;;;24.80
15079;BMP180;6932;51.438;5.470;2022-08-21T06:37:58;101343.00;;;24.90
15079;BMP180;6932;51.438;5.470;2022-08-21T06:40:25;101329.00;;;25.00
15079;BMP180;6932;51.438;5.470;2022-08-21T06:42:51;101340.00;;;25.10
15079;BMP180;6932;51.438;5.470;2022-08-21T06:45:17;101332.00;;;25.20
15079;BMP180;6932;51.438;5.470;2022-08-21T06:47:43;101340.00;;;25.30
15079;BMP180;6932;51.438;5.470;2022-08-21T06:50:09;101335.00;;;25.40
15079;BMP180;6932;51.438;5.470;2022-08-21T06:52:37;101338.00;;;25.40
15079;BMP180;6932;51.438;5.470;2022-08-21T06:55:09;101342.00;;;25.50
15079;BMP180;6932;51.438;5.470;2022-08-21T06:57:35;101333.00;;;25.60
15079;BMP180;6932;51.438;5.470;2022-08-21T07:00:05;101338.00;;;25.80
15079;BMP180;6932;51.438;5.470;2022-08-21T07:02:33;101341.00;;;26.00
15079;BMP180;6932;51.438;5.470;2022-08-21T07:04:59;101343.00;;;26.10
15079;BMP180;6932;51.438;5.470;2022-08-21T07:07:25;101345.00;;;26.30
15079;BMP180;6932;51.438;5.470;2022-08-21T07:09:50;101340.00;;;26.50
15079;BMP180;6932;51.438;5.470;2022-08-21T07:12:16;101342.00;;;26.60
15079;BMP180;6932;51.438;5.470;2022-08-21T07:14:42;101342.00;;;26.80
15079;BMP180;6932;51.438;5.470;2022-08-21T07:17:08;101327.00;;;26.90
15079;BMP180;6932;51.438;5.470;2022-08-21T07:19:35;101334.00;;;26.90
15079;BMP180;6932;51.438;5.470;2022-08-21T07:22:02;101330.00;;;27.00
15079;BMP180;6932;51.438;5.470;2022-08-21T07:24:29;101337.00;;;27.00
15079;BMP180;6932;51.438;5.470;2022-08-21T07:26:55;101333.00;;;27.10
15079;BMP180;6932;51.438;5.470;2022-08-21T07:29:24;101346.00;;;27.20
15079;BMP180;6932;51.438;5.470;2022-08-21T07:31:50;101340.00;;;27.20
15079;BMP180;6932;51.438;5.470;2022-08-21T07:34:16;101336.00;;;27.20
15079;BMP180;6932;51.438;5.470;2022-08-21T07:36:42;101338.00;;;27.30
15079;BMP180;6932;51.438;5.470;2022-08-21T07:39:08;101335.00;;;27.30
15079;BMP180;6932;51.438;5.470;2022-08-21T07:41:34;101341.00;;;27.40
15079;BMP180;6932;51.438;5.470;2022-08-21T07:44:01;101345.00;;;27.40
15079;BMP180;6932;51.438;5.470;2022-08-21T07:46:27;101345.00;;;27.40
15079;BMP180;6932;51.438;5.470;2022-08-21T07:48:54;101347.00;;;27.40
15079;BMP180;6932;51.438;5.470;2022-08-21T07:51:26;101339.00;;;27.40
15079;BMP180;6932;51.438;5.470;2022-08-21T07:53:56;101345.00;;;27.50
15079;BMP180;6932;51.438;5.470;2022-08-21T07:56:22;101343.00;;;27.60
15079;BMP180;6932;51.438;5.470;2022-08-21T07:58:49;101343.00;;;27.80
15079;BMP180;6932;51.438;5.470;2022-08-21T08:01:15;101333.00;;;28.00
15079;BMP180;6932;51.438;5.470;2022-08-21T08:03:41;101335.00;;;28.10
15079;BMP180;6932;51.438;5.470;2022-08-21T08:06:08;101336.00;;;28.20
15079;BMP180;6932;51.438;5.470;2022-08-21T08:08:38;101336.00;;;28.30
15079;BMP180;6932;51.438;5.470;2022-08-21T08:11:06;101329.00;;;28.30
15079;BMP180;6932;51.438;5.470;2022-08-21T08:13:44;101324.00;;;28.40
15079;BMP180;6932;51.438;5.470;2022-08-21T08:16:10;101337.00;;;28.40
15079;BMP180;6932;51.438;5.470;2022-08-21T08:18:36;101346.00;;;28.50
15079;BMP180;6932;51.438;5.470;2022-08-21T08:21:03;101335.00;;;28.50
15079;BMP180;6932;51.438;5.470;2022-08-21T08:23:31;101335.00;;;28.60
15079;BMP180;6932;51.438;5.470;2022-08-21T08:25:58;101338.00;;;28.70
15079;BMP180;6932;51.438;5.470;2022-08-21T08:28:24;101337.00;;;28.90
15079;BMP180;6932;51.438;5.470;2022-08-21T08:30:51;101333.00;;;29.00
15079;BMP180;6932;51.438;5.470;2022-08-21T08:33:17;101326.00;;;29.10
15079;BMP180;6932;51.438;5.470;2022-08-21T08:35:47;101333.00;;;29.20
15079;BMP180;6932;51.438;5.470;2022-08-21T08:38:15;101333.00;;;29.20
15079;BMP180;6932;51.438;5.470;2022-08-21T08:43:14;101333.00;;;29.30
15079;BMP180;6932;51.438;5.470;2022-08-21T08:45:47;101318.00;;;29.40
15079;BMP180;6932;51.438;5.470;2022-08-21T08:48:38;101326.00;;;29.40
15079;BMP180;6932;51.438;5.470;2022-08-21T08:51:15;101322.00;;;29.50
15079;BMP180;6932;51.438;5.470;2022-08-21T08:54:04;101324.00;;;29.60
15079;BMP180;6932;51.438;5.470;2022-08-21T08:56:33;101314.00;;;29.70
15079;BMP180;6932;51.438;5.470;2022-08-21T08:59:18;101313.00;;;29.80
15079;BMP180;6932;51.438;5.470;2022-08-21T09:01:45;101308.00;;;29.80
15079;BMP180;6932;51.438;5.470;2022-08-21T09:04:13;101305.00;;;30.00
15079;BMP180;6932;51.438;5.470;2022-08-21T09:15:46;101305.00;;;30.00
15079;BMP180;6932;51.438;5.470;2022-08-21T09:18:40;101301.00;;;30.10
15079;BMP180;6932;51.438;5.470;2022-08-21T09:21:41;101306.00;;;30.10
15079;BMP180;6932;51.438;5.470;2022-08-21T09:27:17;101304.00;;;30.30
15079;BMP180;6932;51.438;5.470;2022-08-21T09:29:48;101301.00;;;30.40
15079;BMP180;6932;51.438;5.470;2022-08-21T09:32:24;101306.00;;;30.50
15079;BMP180;6932;51.438;5.470;2022-08-21T09:35:17;101294.00;;;30.60
15079;BMP180;6932;51.438;5.470;2022-08-21T09:38:00;101301.00;;;30.60
15079;BMP180;6932;51.438;5.470;2022-08-21T09:40:42;101306.00;;;30.70
15079;BMP180;6932;51.438;5.470;2022-08-21T09:45:39;101313.00;;;30.80
15079;BMP180;6932;51.438;5.470;2022-08-21T09:48:23;101303.00;;;30.90
15079;BMP180;6932;51.438;5.470;2022-08-21T09:50:52;101304.00;;;30.90
15079;BMP180;6932;51.438;5.470;2022-08-21T09:53:27;101305.00;;;30.80
15079;BMP180;6932;51.438;5.470;2022-08-21T09:56:19;101302.00;;;30.80
15079;BMP180;6932;51.438;5.470;2022-08-21T10:01:51;101304.00;;;30.70
15079;BMP180;6932;51.438;5.470;2022-08-21T10:04:33;101301.00;;;30.70
15079;BMP180;6932;51.438;5.470;2022-08-21T10:07:14;101293.00;;;30.70
15079;BMP180;6932;51.438;5.470;2022-08-21T10:09:41;101294.00;;;30.70
15079;BMP180;6932;51.438;5.470;2022-08-21T10:12:22;101293.00;;;30.70
15079;BMP180;6932;51.438;5.470;2022-08-21T10:21:21;101300.00;;;31.10
15079;BMP180;6932;51.438;5.470;2022-08-21T10:24:29;101304.00;;;31.00
15079;BMP180;6932;51.438;5.470;2022-08-21T10:27:25;101303.00;;;31.00
15079;BMP180;6932;51.438;5.470;2022-08-21T10:30:20;101297.00;;;30.90
15079;BMP180;6932;51.438;5.470;2022-08-21T10:33:12;101302.00;;;30.80
15079;BMP180;6932;51.438;5.470;2022-08-21T10:38:59;101303.00;;;30.60
15079;BMP180;6932;51.438;5.470;2022-08-21T10:47:42;101306.00;;;30.40
15079;BMP180;6932;51.438;5.470;2022-08-21T10:50:42;101299.00;;;30.40
15079;BMP180;6932;51.438;5.470;2022-08-21T10:53:39;101306.00;;;30.40
15079;BMP180;6932;51.438;5.470;2022-08-21T10:56:29;101304.00;;;30.40
15079;BMP180;6932;51.438;5.470;2022-08-21T10:59:27;101303.00;;;30.50
15079;BMP180;6932;51.438;5.470;2022-08-21T11:02:17;101306.00;;;30.40
15079;BMP180;6932;51.438;5.470;2022-08-21T11:04:57;101297.00;;;30.40
15079;BMP180;6932;51.438;5.470;2022-08-21T11:07:47;101298.00;;;30.30
15079;BMP180;6932;51.438;5.470;2022-08-21T11:10:27;101301.00;;;30.30
15079;BMP180;6932;51.438;5.470;2022-08-21T11:13:04;101299.00;;;30.20
15079;BMP180;6932;51.438;5.470;2022-08-21T11:15:55;101290.00;;;30.20
15079;BMP180;6932;51.438;5.470;2022-08-21T11:18:33;101296.00;;;30.20
15079;BMP180;6932;51.438;5.470;2022-08-21T11:27:26;101294.00;;;30.20
15079;BMP180;6932;51.438;5.470;2022-08-21T11:29:59;101295.00;;;30.20
15079;BMP180;6932;51.438;5.470;2022-08-21T11:32:43;101287.00;;;30.30
15079;BMP180;6932;51.438;5.470;2022-08-21T11:35:54;101281.00;;;30.30
15079;BMP180;6932;51.438;5.470;2022-08-21T11:38:40;101283.00;;;30.30
15079;BMP180;6932;51.438;5.470;2022-08-21T11:44:30;101288.00;;;30.40
15079;BMP180;6932;51.438;5.470;2022-08-21T11:47:26;101287.00;;;30.50
15079;BMP180;6932;51.438;5.470;2022-08-21T11:50:18;101294.00;;;30.60
15079;BMP180;6932;51.438;5.470;2022-08-21T11:55:55;101290.00;;;30.80
15079;BMP180;6932;51.438;5.470;2022-08-21T11:58:31;101303.00;;;30.80
15079;BMP180;6932;51.438;5.470;2022-08-21T12:01:40;101301.00;;;30.80
15079;BMP180;6932;51.438;5.470;2022-08-21T12:04:26;101306.00;;;30.80
15079;BMP180;6932;51.438;5.470;2022-08-21T12:06:53;101303.00;;;30.80
15079;BMP180;6932;51.438;5.470;2022-08-21T12:15:03;101309.00;;;30.70
15079;BMP180;6932;51.438;5.470;2022-08-21T12:17:38;101299.00;;;30.70
15079;BMP180;6932;51.438;5.470;2022-08-21T12:28:44;101297.00;;;30.30
15079;BMP180;6932;51.438;5.470;2022-08-21T12:31:25;101295.00;;;30.20
15079;BMP180;6932;51.438;5.470;2022-08-21T12:34:01;101289.00;;;30.20
15079;BMP180;6932;51.438;5.470;2022-08-21T12:37:02;101290.00;;;30.20
15079;BMP180;6932;51.438;5.470;2022-08-21T12:39:33;101288.00;;;30.20
15079;BMP180;6932;51.438;5.470;2022-08-21T12:45:28;101301.00;;;30.40
15079;BMP180;6932;51.438;5.470;2022-08-21T12:48:11;101300.00;;;30.40
15079;BMP180;6932;51.438;5.470;2022-08-21T12:50:55;101290.00;;;30.40
15079;BMP180;6932;51.438;5.470;2022-08-21T12:53:56;101293.00;;;30.40
15079;BMP180;6932;51.438;5.470;2022-08-21T12:56:31;101299.00;;;30.50
15079;BMP180;6932;51.438;5.470;2022-08-21T12:59:10;101298.00;;;30.50
15079;BMP180;6932;51.438;5.470;2022-08-21T13:01:50;101295.00;;;30.60
15079;BMP180;6932;51.438;5.470;2022-08-21T13:04:22;101295.00;;;30.60
15079;BMP180;6932;51.438;5.470;2022-08-21T13:06:54;101289.00;;;30.70
15079;BMP180;6932;51.438;5.470;2022-08-21T13:09:28;101288.00;;;30.70
15079;BMP180;6932;51.438;5.470;2022-08-21T13:11:56;101283.00;;;30.70
15079;BMP180;6932;51.438;5.470;2022-08-21T13:14:36;101295.00;;;30.70
15079;BMP180;6932;51.438;5.470;2022-08-21T13:17:06;101302.00;;;30.70
15079;BMP180;6932;51.438;5.470;2022-08-21T13:19:33;101300.00;;;30.70
15079;BMP180;6932;51.438;5.470;2022-08-21T13:22:01;101286.00;;;30.80
15079;BMP180;6932;51.438;5.470;2022-08-21T13:24:35;101303.00;;;30.80
15079;BMP180;6932;51.438;5.470;2022-08-21T13:27:01;101293.00;;;30.80
15079;BMP180;6932;51.438;5.470;2022-08-21T13:29:33;101290.00;;;30.80
15079;BMP180;6932;51.438;5.470;2022-08-21T13:32:05;101287.00;;;30.70
15079;BMP180;6932;51.438;5.470;2022-08-21T13:34:37;101290.00;;;30.70
15079;BMP180;6932;51.438;5.470;2022-08-21T13:37:07;101279.00;;;30.70
15079;BMP180;6932;51.438;5.470;2022-08-21T13:39:34;101284.00;;;30.70
15079;BMP180;6932;51.438;5.470;2022-08-21T13:42:03;101290.00;;;30.70
15079;BMP180;6932;51.438;5.470;2022-08-21T13:44:39;101292.00;;;30.80
15079;BMP180;6932;51.438;5.470;2022-08-21T13:47:09;101277.00;;;30.80
15079;BMP180;6932;51.438;5.470;2022-08-21T13:49:49;101285.00;;;30.80
15079;BMP180;6932;51.438;5.470;2022-08-21T13:52:24;101283.00;;;30.80
15079;BMP180;6932;51.438;5.470;2022-08-21T13:55:00;101289.00;;;30.80
15079;BMP180;6932;51.438;5.470;2022-08-21T13:57:34;101275.00;;;30.70
15079;BMP180;6932;51.438;5.470;2022-08-21T14:02:49;101277.00;;;30.70
15079;BMP180;6932;51.438;5.470;2022-08-21T14:05:29;101281.00;;;30.70
15079;BMP180;6932;51.438;5.470;2022-08-21T14:08:05;101286.00;;;30.60
15079;BMP180;6932;51.438;5.470;2022-08-21T14:10:36;101273.00;;;30.60
15079;BMP180;6932;51.438;5.470;2022-08-21T14:13:05;101282.00;;;30.50
15079;BMP180;6932;51.438;5.470;2022-08-21T14:15:35;101277.00;;;30.50
15079;BMP180;6932;51.438;5.470;2022-08-21T14:18:16;101272.00;;;30.40
15079;BMP180;6932;51.438;5.470;2022-08-21T14:20:42;101275.00;;;30.30
15079;BMP180;6932;51.438;5.470;2022-08-21T14:23:08;101274.00;;;30.30
15079;BMP180;6932;51.438;5.470;2022-08-21T14:25:45;101264.00;;;30.30
15079;BMP180;6932;51.438;5.470;2022-08-21T14:28:26;101260.00;;;30.30
15079;BMP180;6932;51.438;5.470;2022-08-21T14:30:53;101260.00;;;30.20
15079;BMP180;6932;51.438;5.470;2022-08-21T14:33:30;101259.00;;;30.30
15079;BMP180;6932;51.438;5.470;2022-08-21T14:35:57;101253.00;;;30.20
15079;BMP180;6932;51.438;5.470;2022-08-21T14:38:26;101263.00;;;30.20
15079;BMP180;6932;51.438;5.470;2022-08-21T14:41:00;101263.00;;;30.20
15079;BMP180;6932;51.438;5.470;2022-08-21T14:43:29;101264.00;;;30.20
15079;BMP180;6932;51.438;5.470;2022-08-21T14:45:56;101266.00;;;30.20
15079;BMP180;6932;51.438;5.470;2022-08-21T14:48:22;101264.00;;;30.20
15079;BMP180;6932;51.438;5.470;2022-08-21T14:50:48;101268.00;;;30.20
15079;BMP180;6932;51.438;5.470;2022-08-21T14:53:14;101270.00;;;30.20
15079;BMP180;6932;51.438;5.470;2022-08-21T14:55:40;101263.00;;;30.20
15079;BMP180;6932;51.438;5.470;2022-08-21T14:58:25;101260.00;;;30.10
15079;BMP180;6932;51.438;5.470;2022-08-21T15:00:54;101261.00;;;30.20
15079;BMP180;6932;51.438;5.470;2022-08-21T15:03:20;101264.00;;;30.10
15079;BMP180;6932;51.438;5.470;2022-08-21T15:05:48;101270.00;;;30.10
15079;BMP180;6932;51.438;5.470;2022-08-21T15:08:14;101265.00;;;30.10
15079;BMP180;6932;51.438;5.470;2022-08-21T15:10:40;101262.00;;;30.20
15079;BMP180;6932;51.438;5.470;2022-08-21T15:13:07;101263.00;;;30.20
15079;BMP180;6932;51.438;5.470;2022-08-21T15:15:40;101265.00;;;30.20
15079;BMP180;6932;51.438;5.470;2022-08-21T15:18:06;101271.00;;;30.20
15079;BMP180;6932;51.438;5.470;2022-08-21T15:20:35;101268.00;;;30.10
15079;BMP180;6932;51.438;5.470;2022-08-21T15:23:01;101268.00;;;30.10
15079;BMP180;6932;51.438;5.470;2022-08-21T15:25:27;101267.00;;;30.10
15079;BMP180;6932;51.438;5.470;2022-08-21T15:27:52;101263.00;;;30.10
15079;BMP180;6932;51.438;5.470;2022-08-21T15:30:19;101264.00;;;30.00
15079;BMP180;6932;51.438;5.470;2022-08-21T15:32:46;101263.00;;;30.00
15079;BMP180;6932;51.438;5.470;2022-08-21T15:35:12;101266.00;;;29.90
15079;BMP180;6932;51.438;5.470;2022-08-21T15:37:39;101262.00;;;29.90
15079;BMP180;6932;51.438;5.470;2022-08-21T15:40:07;101271.00;;;29.90
15079;BMP180;6932;51.438;5.470;2022-08-21T15:42:33;101272.00;;;29.80